Time;durP1;ratioP1;P1;durP2;ratioP2;P2;SDS_P1;SDS_P2;PMS_P1;PMS_P2;Temp;Humidity;BMP_temperature;BMP_pressure;BME280_temperature;BME280_humidity;BME280_pressure;Samples;Min_cycle;Max_cycle;Signal;HPM_P1;HPM_P2
2021/12/09 00:00:57;;;;;;;;;;;3.60;99.90;;;;;;5078603;28;19907;-80
2021/12/09 00:03:23;;;;;;;;;;;3.50;99.90;;;;;;5095287;28;19915;-81
2021/12/09 00:05:49;;;;;;;;;;;3.40;99.90;;;;;;5096765;28;19908;-80
2021/12/09 00:08:14;;;;;;;;;;;3.40;99.90;;;;;;5096705;28;19915;-80
2021/12/09 00:10:41;;;;;;;;;;;3.50;99.90;;;;;;5096421;28;20410;-80
2021/12/09 00:13:07;;;;;;;;;;;3.40;99.90;;;;;;5096374;28;19915;-80
2021/12/09 00:15:33;;;;;;;;;;;3.30;99.90;;;;;;5096529;28;19934;-81
2021/12/09 00:17:58;;;;;;;;;;;3.10;99.90;;;;;;5096674;28;19916;-80
2021/12/09 00:20:24;;;;;;;;;;;3.10;99.90;;;;;;5096554;28;19908;-78
2021/12/09 00:22:50;;;;;;;;;;;3.10;99.90;;;;;;5078325;28;19957;-78
2021/12/09 00:25:15;;;;;;;;;;;3.20;99.90;;;;;;5096433;28;20308;-81
2021/12/09 00:27:42;;;;;;;;;;;3.30;99.90;;;;;;5096324;28;19977;-80
2021/12/09 00:30:08;;;;;;;;;;;3.40;99.90;;;;;;5078081;28;19916;-78
2021/12/09 00:32:34;;;;;;;;;;;3.30;99.90;;;;;;5096227;28;19908;-80
2021/12/09 00:34:59;;;;;;;;;;;3.30;99.90;;;;;;5094904;28;19931;-81
2021/12/09 00:37:33;;;;;;;;;;;3.10;99.90;;;;;;5078028;28;19908;-79
2021/12/09 00:39:58;;;;;;;;;;;3.00;99.90;;;;;;5096211;28;20383;-80
2021/12/09 00:42:25;;;;;;;;;;;3.10;99.90;;;;;;5077910;28;19909;-80
2021/12/09 00:44:51;;;;;;;;;;;3.30;99.90;;;;;;5095974;28;19908;-80
2021/12/09 00:47:17;;;;;;;;;;;3.30;99.90;;;;;;5077717;28;19938;-81
2021/12/09 00:49:43;;;;;;;;;;;3.30;99.90;;;;;;5095819;28;19955;-80
2021/12/09 00:52:08;;;;;;;;;;;3.30;99.90;;;;;;5094601;28;20284;-79
2021/12/09 00:54:35;;;;;;;;;;;3.30;99.90;;;;;;5095853;28;19908;-80
2021/12/09 00:57:01;;;;;;;;;;;3.40;99.90;;;;;;5077612;28;19944;-81
2021/12/09 00:59:26;;;;;;;;;;;3.40;99.90;;;;;;5077524;28;19915;-79
2021/12/09 01:01:52;;;;;;;;;;;3.20;99.90;;;;;;5077531;28;19934;-82
2021/12/09 01:04:17;;;;;;;;;;;3.30;99.90;;;;;;5095621;28;20280;-80
2021/12/09 01:06:43;;;;;;;;;;;3.40;99.90;;;;;;5077403;28;20362;-80
2021/12/09 01:09:09;;;;;;;;;;;3.40;99.90;;;;;;5095564;28;19919;-78
2021/12/09 01:11:34;;;;;;;;;;;3.30;99.90;;;;;;5095472;28;19927;-80
2021/12/09 01:14:00;;;;;;;;;;;3.40;99.90;;;;;;5095489;28;19998;-80
2021/12/09 01:16:26;;;;;;;;;;;3.30;99.90;;;;;;5095607;28;19908;-80
2021/12/09 01:18:52;;;;;;;;;;;3.40;99.90;;;;;;5095452;28;20280;-80
2021/12/09 01:21:18;;;;;;;;;;;3.30;99.90;;;;;;5095339;28;19908;-79
2021/12/09 01:23:43;;;;;;;;;;;3.30;99.90;;;;;;5094535;28;19908;-82
2021/12/09 01:26:09;;;;;;;;;;;3.40;99.90;;;;;;5095443;28;20323;-80
2021/12/09 01:28:51;;;;;;;;;;;3.40;99.90;;;;;;5095297;28;19955;-81
2021/12/09 01:31:27;;;;;;;;;;;3.40;99.90;;;;;;5095280;28;19919;-80
2021/12/09 01:33:54;;;;;;;;;;;3.40;99.90;;;;;;5076599;28;19908;-81
2021/12/09 01:36:20;;;;;;;;;;;3.40;99.90;;;;;;5095227;28;20003;-79
2021/12/09 01:38:46;;;;;;;;;;;3.40;99.90;;;;;;5095063;28;19908;-80
2021/12/09 01:41:12;;;;;;;;;;;3.50;99.90;;;;;;5094856;28;19912;-80
2021/12/09 01:43:38;;;;;;;;;;;3.40;99.90;;;;;;5094834;28;20333;-80
2021/12/09 01:46:05;;;;;;;;;;;3.40;99.90;;;;;;5094795;28;19916;-82
2021/12/09 01:48:31;;;;;;;;;;;3.40;99.90;;;;;;5094734;28;20403;-79
2021/12/09 01:50:57;;;;;;;;;;;3.40;99.90;;;;;;5094609;28;19912;-81
2021/12/09 01:53:22;;;;;;;;;;;3.40;99.90;;;;;;5093343;28;19908;-80
2021/12/09 01:55:48;;;;;;;;;;;3.40;99.90;;;;;;5094638;28;19908;-80
2021/12/09 01:58:13;;;;;;;;;;;3.30;99.90;;;;;;5094595;28;19999;-80
2021/12/09 02:00:39;;;;;;;;;;;3.30;99.90;;;;;;5094581;28;20284;-80
2021/12/09 02:03:05;;;;;;;;;;;3.40;99.90;;;;;;5076272;28;19954;-78
2021/12/09 02:05:31;;;;;;;;;;;3.20;99.90;;;;;;5094481;28;20384;-80
2021/12/09 02:07:57;;;;;;;;;;;3.30;99.90;;;;;;5093114;28;19915;-80
2021/12/09 02:10:22;;;;;;;;;;;3.20;99.90;;;;;;5094294;28;19934;-80
2021/12/09 02:12:49;;;;;;;;;;;3.40;99.90;;;;;;5093910;28;19958;-79
2021/12/09 02:15:15;;;;;;;;;;;3.40;99.90;;;;;;5094290;28;19912;-80
2021/12/09 02:17:40;;;;;;;;;;;3.40;99.90;;;;;;5094467;28;19916;-80
2021/12/09 02:20:08;;;;;;;;;;;3.40;99.90;;;;;;5094563;28;19908;-81
2021/12/09 02:22:33;;;;;;;;;;;3.40;99.90;;;;;;5075975;28;20364;-81
2021/12/09 02:24:59;;;;;;;;;;;3.40;99.90;;;;;;5094123;28;19908;-79
2021/12/09 02:27:25;;;;;;;;;;;3.40;99.90;;;;;;5075972;28;20341;-80
2021/12/09 02:29:51;;;;;;;;;;;3.30;99.90;;;;;;5075878;28;20333;-81
2021/12/09 02:32:17;;;;;;;;;;;3.20;99.90;;;;;;5094070;28;20433;-81
2021/12/09 02:34:43;;;;;;;;;;;3.20;99.90;;;;;;5094067;28;19912;-80
2021/12/09 02:37:10;;;;;;;;;;;3.30;99.90;;;;;;5094265;28;19912;-79
2021/12/09 02:39:36;;;;;;;;;;;3.20;99.90;;;;;;5093930;28;19908;-79
2021/12/09 02:42:02;;;;;;;;;;;3.20;99.90;;;;;;5093867;28;19961;-80
2021/12/09 02:44:27;;;;;;;;;;;3.00;99.90;;;;;;5093882;28;19908;-81
2021/12/09 02:46:55;;;;;;;;;;;3.00;99.90;;;;;;5093878;28;19915;-81
2021/12/09 02:49:21;;;;;;;;;;;3.00;99.90;;;;;;5093799;28;20372;-80
2021/12/09 02:51:47;;;;;;;;;;;3.00;99.90;;;;;;5094272;28;20022;-80
2021/12/09 02:54:15;;;;;;;;;;;2.90;99.90;;;;;;5093981;28;19908;-79
2021/12/09 02:56:41;;;;;;;;;;;2.80;99.90;;;;;;5093755;28;20564;-80
2021/12/09 02:59:08;;;;;;;;;;;2.90;99.90;;;;;;5093743;28;19912;-80
2021/12/09 03:01:35;;;;;;;;;;;2.90;99.90;;;;;;5093769;28;19908;-79
2021/12/09 03:04:03;;;;;;;;;;;3.00;99.90;;;;;;5093932;28;19912;-79
2021/12/09 03:06:33;;;;;;;;;;;3.00;99.90;;;;;;5093826;28;20322;-81
2021/12/09 03:09:02;;;;;;;;;;;3.10;99.90;;;;;;5093864;28;20003;-80
2021/12/09 03:11:28;;;;;;;;;;;3.10;99.90;;;;;;5093454;28;19926;-81
2021/12/09 03:13:53;;;;;;;;;;;3.10;99.90;;;;;;5093612;28;19994;-81
2021/12/09 03:16:22;;;;;;;;;;;3.00;99.90;;;;;;5093567;28;19934;-80
2021/12/09 03:18:56;;;;;;;;;;;3.00;99.90;;;;;;5075436;28;20000;-79
2021/12/09 03:21:27;;;;;;;;;;;3.00;99.90;;;;;;5093564;28;19908;-80
2021/12/09 03:23:53;;;;;;;;;;;2.90;99.90;;;;;;5075382;28;20265;-80
2021/12/09 03:26:25;;;;;;;;;;;3.00;99.90;;;;;;5093458;28;20261;-80
2021/12/09 03:28:51;;;;;;;;;;;2.90;99.90;;;;;;5075045;28;19937;-79
2021/12/09 03:31:17;;;;;;;;;;;2.90;99.90;;;;;;5093544;28;19908;-80
2021/12/09 03:33:43;;;;;;;;;;;2.90;99.90;;;;;;5093432;28;19916;-80
2021/12/09 03:36:08;;;;;;;;;;;3.00;99.90;;;;;;5075266;28;19909;-80
2021/12/09 03:38:34;;;;;;;;;;;3.10;99.90;;;;;;5093388;28;19915;-80
2021/12/09 03:41:00;;;;;;;;;;;3.20;99.90;;;;;;5075142;28;19990;-80
2021/12/09 03:43:26;;;;;;;;;;;3.10;99.90;;;;;;5093491;28;20352;-80
2021/12/09 03:45:54;;;;;;;;;;;3.10;99.90;;;;;;5075242;28;20323;-80
2021/12/09 03:48:21;;;;;;;;;;;3.10;99.90;;;;;;5096296;28;19915;-80
2021/12/09 03:50:47;;;;;;;;;;;3.10;99.90;;;;;;5097002;28;20447;-79
2021/12/09 03:53:12;;;;;;;;;;;3.30;99.90;;;;;;5078835;28;19908;-80
2021/12/09 03:55:38;;;;;;;;;;;3.40;99.90;;;;;;5097239;28;19931;-81
2021/12/09 03:58:04;;;;;;;;;;;3.30;99.90;;;;;;5096915;28;19908;-79
2021/12/09 04:00:30;;;;;;;;;;;3.30;99.90;;;;;;5096918;28;20357;-80
2021/12/09 04:02:56;;;;;;;;;;;3.20;99.90;;;;;;5095551;28;19959;-80
2021/12/09 04:05:21;;;;;;;;;;;3.30;99.90;;;;;;5078598;28;19912;-81
2021/12/09 04:07:47;;;;;;;;;;;3.30;99.90;;;;;;5096769;28;19961;-80
2021/12/09 04:10:13;;;;;;;;;;;3.20;99.90;;;;;;5096570;28;20050;-80
2021/12/09 04:12:38;;;;;;;;;;;3.20;99.90;;;;;;5096259;28;19920;-81
2021/12/09 04:15:05;;;;;;;;;;;3.20;99.90;;;;;;5096755;28;19908;-80
2021/12/09 04:17:31;;;;;;;;;;;3.10;99.90;;;;;;5078312;28;20109;-82
2021/12/09 04:19:56;;;;;;;;;;;3.00;99.90;;;;;;5096528;28;19982;-81
2021/12/09 04:22:22;;;;;;;;;;;3.10;99.90;;;;;;5096664;28;19951;-79
2021/12/09 04:24:48;;;;;;;;;;;3.10;99.90;;;;;;5096473;28;19909;-80
2021/12/09 04:27:14;;;;;;;;;;;3.20;99.90;;;;;;5078216;28;19958;-81
2021/12/09 04:29:39;;;;;;;;;;;3.20;99.90;;;;;;5096314;28;19951;-79
2021/12/09 04:32:05;;;;;;;;;;;3.20;99.90;;;;;;5078120;28;19912;-80
2021/12/09 04:34:31;;;;;;;;;;;3.20;99.90;;;;;;5078016;28;19912;-80
2021/12/09 04:36:57;;;;;;;;;;;3.20;99.90;;;;;;5096556;28;19908;-80
2021/12/09 04:39:23;;;;;;;;;;;3.30;99.90;;;;;;5096067;28;19908;-80
2021/12/09 04:41:50;;;;;;;;;;;3.20;99.90;;;;;;5096061;28;20011;-80
2021/12/09 04:44:15;;;;;;;;;;;3.30;99.90;;;;;;5096024;28;19915;-80
2021/12/09 04:46:41;;;;;;;;;;;3.20;99.90;;;;;;5096048;28;19912;-82
2021/12/09 04:49:06;;;;;;;;;;;3.20;99.90;;;;;;5095882;28;19954;-80
2021/12/09 04:51:33;;;;;;;;;;;3.20;99.90;;;;;;5096049;28;19995;-79
2021/12/09 04:53:58;;;;;;;;;;;3.20;99.90;;;;;;5095866;28;19915;-80
2021/12/09 04:56:24;;;;;;;;;;;3.30;99.90;;;;;;5095852;28;19908;-79
2021/12/09 04:58:50;;;;;;;;;;;3.20;99.90;;;;;;5094656;28;19912;-79
2021/12/09 05:01:16;;;;;;;;;;;3.20;99.90;;;;;;5077538;28;20083;-79
2021/12/09 05:03:45;;;;;;;;;;;3.10;99.90;;;;;;5095711;28;19969;-81
2021/12/09 05:06:11;;;;;;;;;;;2.90;99.90;;;;;;5095641;28;19918;-80
2021/12/09 05:08:39;;;;;;;;;;;3.00;99.90;;;;;;5095829;28;19912;-81
2021/12/09 05:11:10;;;;;;;;;;;2.90;99.90;;;;;;5095228;28;19923;-81
2021/12/09 05:13:38;;;;;;;;;;;2.70;99.90;;;;;;5095621;28;19912;-81
2021/12/09 05:16:05;;;;;;;;;;;2.80;99.90;;;;;;5095442;28;19931;-80
2021/12/09 05:18:33;;;;;;;;;;;2.70;99.90;;;;;;5095345;28;19912;-80
2021/12/09 05:21:00;;;;;;;;;;;2.80;99.90;;;;;;5077192;28;19912;-79
2021/12/09 05:23:26;;;;;;;;;;;2.80;99.90;;;;;;5095387;28;19908;-80
2021/12/09 05:25:53;;;;;;;;;;;2.90;99.90;;;;;;5094450;28;20206;-81
2021/12/09 05:28:25;;;;;;;;;;;2.80;99.90;;;;;;5095653;28;19922;-80
2021/12/09 05:33:35;;;;;;;;;;;2.80;99.90;;;;;;5094873;28;19914;-80
2021/12/09 05:36:01;;;;;;;;;;;2.90;99.90;;;;;;5095065;28;20006;-81
2021/12/09 05:38:26;;;;;;;;;;;2.90;99.90;;;;;;5094981;28;19934;-81
2021/12/09 05:40:52;;;;;;;;;;;2.90;99.90;;;;;;5076624;28;19999;-81
2021/12/09 05:43:18;;;;;;;;;;;2.80;99.90;;;;;;5095069;28;19943;-80
2021/12/09 05:45:45;;;;;;;;;;;2.70;99.90;;;;;;5095003;28;19973;-80
2021/12/09 05:48:11;;;;;;;;;;;2.70;99.90;;;;;;5094827;28;20331;-81
2021/12/09 05:50:37;;;;;;;;;;;2.70;99.90;;;;;;5095028;28;19956;-80
2021/12/09 05:53:03;;;;;;;;;;;2.80;99.90;;;;;;5076552;28;19908;-81
2021/12/09 05:55:28;;;;;;;;;;;2.90;99.90;;;;;;5094665;28;20422;-81
2021/12/09 05:57:54;;;;;;;;;;;3.10;99.90;;;;;;5094630;28;20372;-80
2021/12/09 06:00:20;;;;;;;;;;;3.10;99.90;;;;;;5094825;28;19908;-79
2021/12/09 06:02:45;;;;;;;;;;;3.20;99.90;;;;;;5076341;28;19909;-79
2021/12/09 06:05:11;;;;;;;;;;;3.30;99.90;;;;;;5094468;28;19918;-80
2021/12/09 06:07:36;;;;;;;;;;;3.30;99.90;;;;;;5094504;28;19908;-79
2021/12/09 06:10:04;;;;;;;;;;;3.40;99.90;;;;;;5075848;28;19912;-79
2021/12/09 06:12:30;;;;;;;;;;;3.40;99.90;;;;;;5093995;28;19924;-80
2021/12/09 06:14:55;;;;;;;;;;;3.30;99.90;;;;;;5094272;28;19912;-81
2021/12/09 06:17:21;;;;;;;;;;;3.30;99.90;;;;;;5094403;28;19912;-80
2021/12/09 06:19:46;;;;;;;;;;;3.20;99.90;;;;;;5094294;28;20387;-81
2021/12/09 06:22:12;;;;;;;;;;;3.30;99.90;;;;;;5076049;28;20430;-78
2021/12/09 06:24:38;;;;;;;;;;;3.30;99.90;;;;;;5094400;28;19955;-80
2021/12/09 06:27:06;;;;;;;;;;;3.40;99.90;;;;;;5094329;28;19940;-79
2021/12/09 06:29:32;;;;;;;;;;;3.40;99.90;;;;;;5094022;28;19920;-80
2021/12/09 06:31:58;;;;;;;;;;;3.20;99.90;;;;;;5094093;28;19915;-79
2021/12/09 06:34:24;;;;;;;;;;;3.20;99.90;;;;;;5093982;28;19908;-79
2021/12/09 06:36:49;;;;;;;;;;;3.20;99.90;;;;;;5094397;28;19909;-82
2021/12/09 06:39:15;;;;;;;;;;;3.40;99.90;;;;;;5093965;28;20287;-80
2021/12/09 06:41:41;;;;;;;;;;;3.50;99.90;;;;;;5094061;28;19920;-80
2021/12/09 06:44:06;;;;;;;;;;;3.50;99.90;;;;;;5075738;28;19915;-80
2021/12/09 06:46:32;;;;;;;;;;;3.60;99.90;;;;;;5094082;28;20364;-80
2021/12/09 06:48:58;;;;;;;;;;;3.60;99.90;;;;;;5093925;28;19958;-80
2021/12/09 06:51:24;;;;;;;;;;;3.60;99.90;;;;;;5094015;28;19908;-80
2021/12/09 06:53:49;;;;;;;;;;;3.60;99.90;;;;;;5093770;28;19914;-79
2021/12/09 06:56:15;;;;;;;;;;;3.50;99.90;;;;;;5093836;28;19908;-78
2021/12/09 06:58:41;;;;;;;;;;;3.50;99.90;;;;;;5093580;28;19919;-81
2021/12/09 07:01:07;;;;;;;;;;;3.50;99.90;;;;;;5093657;28;19908;-81
2021/12/09 07:03:33;;;;;;;;;;;3.50;99.90;;;;;;5075516;28;19915;-79
2021/12/09 07:06:05;;;;;;;;;;;3.50;99.90;;;;;;5093907;28;20268;-80
2021/12/09 07:08:30;;;;;;;;;;;3.40;99.90;;;;;;5093978;28;19909;-79
2021/12/09 07:10:56;;;;;;;;;;;3.50;99.90;;;;;;5093366;28;19920;-79
2021/12/09 07:13:22;;;;;;;;;;;3.50;99.90;;;;;;5093862;28;19955;-80
2021/12/09 07:15:47;;;;;;;;;;;3.80;99.90;;;;;;5075488;28;19998;-80
2021/12/09 07:18:13;;;;;;;;;;;3.90;99.90;;;;;;5093582;28;20002;-80
2021/12/09 07:20:39;;;;;;;;;;;3.80;99.90;;;;;;5093550;28;20432;-80
2021/12/09 07:23:04;;;;;;;;;;;3.80;99.90;;;;;;5096478;28;20326;-79
2021/12/09 07:25:30;;;;;;;;;;;3.90;99.90;;;;;;5079387;28;19908;-80
2021/12/09 07:27:56;;;;;;;;;;;4.00;99.90;;;;;;5079342;28;19952;-80
2021/12/09 07:30:22;;;;;;;;;;;3.90;99.90;;;;;;5097376;28;19961;-81
2021/12/09 07:32:48;;;;;;;;;;;3.90;99.90;;;;;;5079187;28;20253;-80
2021/12/09 07:35:15;;;;;;;;;;;4.00;99.90;;;;;;5097555;28;19908;-80
2021/12/09 07:37:41;;;;;;;;;;;4.20;99.90;;;;;;5097368;28;19961;-83
2021/12/09 07:40:07;;;;;;;;;;;4.40;99.90;;;;;;5079064;28;19912;-80
2021/12/09 07:42:33;;;;;;;;;;;4.60;99.90;;;;;;5097338;28;19930;-81
2021/12/09 07:44:59;;;;;;;;;;;4.50;99.90;;;;;;5097213;28;19909;-82
2021/12/09 07:47:24;;;;;;;;;;;4.40;99.90;;;;;;5097156;28;19934;-80
2021/12/09 07:49:50;;;;;;;;;;;4.40;99.90;;;;;;5097343;28;20360;-81
2021/12/09 07:52:15;;;;;;;;;;;4.40;99.90;;;;;;5097276;28;19908;-81
2021/12/09 07:54:41;;;;;;;;;;;4.30;99.90;;;;;;5097063;28;20065;-80
2021/12/09 07:57:07;;;;;;;;;;;4.30;99.90;;;;;;5096937;28;19915;-81
2021/12/09 07:59:32;;;;;;;;;;;4.40;99.90;;;;;;5096990;28;19908;-81
2021/12/09 08:01:58;;;;;;;;;;;4.30;99.90;;;;;;5097161;28;19908;-81
2021/12/09 08:04:23;;;;;;;;;;;4.10;99.90;;;;;;5097062;28;19909;-81
2021/12/09 08:06:49;;;;;;;;;;;4.00;99.90;;;;;;5078577;28;19957;-80
2021/12/09 08:09:15;;;;;;;;;;;4.00;99.90;;;;;;5095411;28;20273;-80
2021/12/09 08:11:41;;;;;;;;;;;4.30;99.90;;;;;;5096790;28;19924;-81
2021/12/09 08:14:09;;;;;;;;;;;4.40;99.90;;;;;;5096780;28;19915;-80
2021/12/09 08:16:37;;;;;;;;;;;4.50;99.90;;;;;;5096790;28;19915;-80
2021/12/09 08:19:08;;;;;;;;;;;4.50;99.90;;;;;;5078298;28;19915;-79
2021/12/09 08:21:35;;;;;;;;;;;4.60;99.90;;;;;;5096521;28;19958;-80
2021/12/09 08:24:01;;;;;;;;;;;4.70;99.90;;;;;;5096468;28;19920;-81
2021/12/09 08:26:27;;;;;;;;;;;4.70;99.90;;;;;;5096399;28;20288;-81
2021/12/09 08:28:52;;;;;;;;;;;4.50;99.90;;;;;;5078229;28;19908;-81
2021/12/09 08:31:18;;;;;;;;;;;4.50;99.90;;;;;;5096258;28;19912;-80
2021/12/09 08:33:44;;;;;;;;;;;4.30;99.90;;;;;;5096338;28;19908;-80
2021/12/09 08:36:10;;;;;;;;;;;4.40;99.90;;;;;;5096275;28;19908;-80
2021/12/09 08:38:38;;;;;;;;;;;4.30;99.90;;;;;;5095990;28;19961;-80
2021/12/09 08:41:05;;;;;;;;;;;4.50;99.90;;;;;;5094869;28;19908;-82
2021/12/09 08:43:31;;;;;;;;;;;4.60;99.90;;;;;;5095639;28;19908;-80
2021/12/09 08:45:58;;;;;;;;;;;4.90;99.90;;;;;;5061133;28;19919;-81
2021/12/09 08:48:26;;;;;;;;;;;4.70;99.90;;;;;;5095544;28;19908;-80
2021/12/09 08:50:55;;;;;;;;;;;4.60;99.90;;;;;;5095747;28;19919;-80
2021/12/09 08:53:25;;;;;;;;;;;4.70;99.90;;;;;;5077895;28;19943;-81
2021/12/09 08:55:53;;;;;;;;;;;4.70;99.90;;;;;;5060915;28;19940;-80
2021/12/09 08:58:20;;;;;;;;;;;4.60;99.90;;;;;;5096025;28;19912;-79
2021/12/09 09:00:46;;;;;;;;;;;4.80;99.90;;;;;;5077727;28;19966;-81
2021/12/09 09:03:12;;;;;;;;;;;5.10;99.90;;;;;;5077793;28;19919;-82
2021/12/09 09:05:40;;;;;;;;;;;5.20;99.90;;;;;;5077539;28;19908;-81
2021/12/09 09:08:06;;;;;;;;;;;5.40;99.90;;;;;;5095675;28;19931;-80
2021/12/09 09:10:33;;;;;;;;;;;5.40;99.90;;;;;;5095371;28;19916;-82
2021/12/09 09:12:59;;;;;;;;;;;5.50;99.90;;;;;;5077378;28;19912;-80
2021/12/09 09:15:25;;;;;;;;;;;5.20;99.90;;;;;;5095474;28;19908;-82
2021/12/09 09:17:51;;;;;;;;;;;5.30;99.90;;;;;;5077230;28;20369;-81
2021/12/09 09:20:19;;;;;;;;;;;5.50;99.90;;;;;;5095377;28;19915;-81
2021/12/09 09:22:45;;;;;;;;;;;5.70;99.90;;;;;;5095299;28;19908;-80
2021/12/09 09:25:14;;;;;;;;;;;5.90;99.90;;;;;;5095345;28;20344;-81
2021/12/09 09:27:40;;;;;;;;;;;6.20;99.90;;;;;;5095219;28;19909;-80
2021/12/09 09:30:06;;;;;;;;;;;6.10;99.90;;;;;;5095099;28;20335;-81
2021/12/09 09:32:32;;;;;;;;;;;6.30;99.90;;;;;;5095119;28;19912;-81
2021/12/09 09:34:57;;;;;;;;;;;6.20;99.90;;;;;;5076936;28;20325;-80
2021/12/09 09:37:23;;;;;;;;;;;6.30;99.90;;;;;;5095230;28;20376;-81
2021/12/09 09:39:49;;;;;;;;;;;6.30;99.90;;;;;;5094952;28;20306;-80
2021/12/09 09:44:48;;;;;;;;;;;6.30;99.90;;;;;;5094304;28;19908;-80
2021/12/09 09:47:15;;;;;;;;;;;5.70;99.90;;;;;;5095077;28;19908;-79
2021/12/09 09:49:41;;;;;;;;;;;6.00;99.90;;;;;;5076582;28;20003;-80
2021/12/09 09:52:08;;;;;;;;;;;6.50;99.90;;;;;;5094851;28;19954;-80
2021/12/09 09:54:35;;;;;;;;;;;6.80;99.90;;;;;;5094752;28;19999;-80
2021/12/09 09:57:00;;;;;;;;;;;7.00;99.90;;;;;;5094899;28;19908;-80
2021/12/09 09:59:26;;;;;;;;;;;7.00;99.90;;;;;;5094660;28;20340;-81
2021/12/09 10:01:55;;;;;;;;;;;7.00;99.90;;;;;;5094597;28;19912;-81
2021/12/09 10:04:45;;;;;;;;;;;7.00;99.90;;;;;;5064971;28;19920;-81
2021/12/09 10:07:09;;;;;;;;;;;7.10;99.90;;;;;;5093614;28;20015;-81
2021/12/09 10:09:35;;;;;;;;;;;7.20;99.90;;;;;;5076297;28;19912;-80
2021/12/09 10:12:01;;;;;;;;;;;7.30;99.90;;;;;;5076106;28;19920;-82
2021/12/09 10:14:32;;;;;;;;;;;7.20;99.90;;;;;;5094510;28;19908;-81
2021/12/09 10:17:03;;;;;;;;;;;7.10;99.90;;;;;;5094441;28;19915;-81
2021/12/09 10:19:28;;;;;;;;;;;7.20;99.90;;;;;;5094489;28;20390;-80
2021/12/09 10:22:08;;;;;;;;;;;7.20;99.90;;;;;;5094309;28;19957;-80
2021/12/09 10:24:34;;;;;;;;;;;7.10;99.90;;;;;;5094263;28;20013;-80
2021/12/09 10:27:00;;;;;;;;;;;7.10;99.90;;;;;;5094178;28;19915;-81
2021/12/09 10:29:38;;;;;;;;;;;7.20;99.90;;;;;;5094270;28;19912;-80
2021/12/09 10:32:05;;;;;;;;;;;7.30;99.90;;;;;;5094294;28;19908;-81
2021/12/09 10:34:49;;;;;;;;;;;7.10;99.90;;;;;;5094156;28;19919;-80
2021/12/09 10:37:20;;;;;;;;;;;7.20;99.90;;;;;;5094065;28;19909;-80
2021/12/09 10:39:51;;;;;;;;;;;7.30;99.90;;;;;;5093921;28;19911;-81
2021/12/09 10:42:30;;;;;;;;;;;7.50;99.90;;;;;;5093976;28;20050;-81
2021/12/09 10:45:02;;;;;;;;;;;7.20;99.90;;;;;;5093875;28;20441;-81
2021/12/09 10:50:21;;;;;;;;;;;7.60;99.90;;;;;;5093527;28;19912;-80
2021/12/09 10:52:51;;;;;;;;;;;7.40;99.90;;;;;;5075485;28;19919;-80
2021/12/09 10:55:31;;;;;;;;;;;7.40;99.90;;;;;;5075676;28;20365;-81
2021/12/09 10:58:10;;;;;;;;;;;7.70;99.90;;;;;;5092874;28;19929;-79
2021/12/09 11:00:40;;;;;;;;;;;7.90;99.90;;;;;;5093760;28;19931;-80
2021/12/09 11:03:14;;;;;;;;;;;8.20;99.90;;;;;;5093834;28;19909;-80
2021/12/09 11:05:45;;;;;;;;;;;8.30;99.90;;;;;;5093775;28;19944;-81
2021/12/09 11:08:12;;;;;;;;;;;8.10;99.90;;;;;;5093626;28;19943;-81
2021/12/09 11:10:45;;;;;;;;;;;7.90;99.90;;;;;;5075290;28;19957;-81
2021/12/09 11:13:11;;;;;;;;;;;8.10;99.90;;;;;;5093920;28;19919;-81
2021/12/09 11:15:49;;;;;;;;;;;8.30;99.90;;;;;;5093618;28;19908;-81
2021/12/09 11:18:31;;;;;;;;;;;8.40;99.90;;;;;;5093547;28;19957;-80
2021/12/09 11:20:57;;;;;;;;;;;8.50;99.90;;;;;;5093880;28;20265;-80
2021/12/09 11:23:26;;;;;;;;;;;8.40;99.90;;;;;;5093552;28;19915;-80
2021/12/09 11:25:53;;;;;;;;;;;8.40;99.90;;;;;;5093523;28;19912;-80
2021/12/09 11:28:18;;;;;;;;;;;8.60;99.90;;;;;;5075414;28;19978;-82
2021/12/09 11:31:05;;;;;;;;;;;8.70;99.90;;;;;;5093442;28;19959;-79
2021/12/09 11:33:39;;;;;;;;;;;8.50;99.90;;;;;;5075333;28;19912;-80
2021/12/09 11:36:07;;;;;;;;;;;8.50;99.90;;;;;;5093529;28;19915;-81
2021/12/09 11:38:53;;;;;;;;;;;8.40;99.90;;;;;;5075205;28;19931;-82
2021/12/09 11:41:30;;;;;;;;;;;8.30;99.90;;;;;;5093486;28;19959;-81
2021/12/09 11:43:55;;;;;;;;;;;8.40;99.90;;;;;;5093493;28;20318;-81
2021/12/09 11:46:21;;;;;;;;;;;8.40;99.90;;;;;;5093222;28;19938;-81
2021/12/09 11:48:46;;;;;;;;;;;8.40;99.90;;;;;;5093305;28;19954;-79
2021/12/09 11:51:12;;;;;;;;;;;8.40;99.90;;;;;;5093217;28;19912;-80
2021/12/09 11:53:42;;;;;;;;;;;8.50;99.90;;;;;;5093233;28;19908;-80
2021/12/09 11:56:21;;;;;;;;;;;8.50;99.90;;;;;;5075098;28;19914;-80
2021/12/09 11:59:19;;;;;;;;;;;8.50;99.90;;;;;;5074831;28;20508;-80
2021/12/09 12:12:53;;;;;;;;;;;8.40;99.90;;;;;;5096587;28;19997;-82
2021/12/09 12:21:24;;;;;;;;;;;8.40;99.90;;;;;;5087970;28;19908;-81
2021/12/09 12:37:47;;;;;;;;;;;8.50;99.90;;;;;;5096218;28;19912;-79
2021/12/09 12:40:14;;;;;;;;;;;8.60;99.90;;;;;;5096276;28;20280;-80
2021/12/09 12:43:18;;;;;;;;;;;8.50;99.90;;;;;;5096290;28;19938;-79
2021/12/09 12:48:35;;;;;;;;;;;8.40;99.90;;;;;;5095767;28;20023;-82
2021/12/09 12:51:10;;;;;;;;;;;8.70;99.90;;;;;;5077525;28;20365;-80
2021/12/09 12:53:40;;;;;;;;;;;8.60;99.90;;;;;;5095975;28;20007;-81
2021/12/09 12:56:11;;;;;;;;;;;8.80;99.90;;;;;;5095906;28;19908;-82
2021/12/09 12:58:36;;;;;;;;;;;8.90;99.90;;;;;;5077753;28;20284;-81
2021/12/09 13:01:18;;;;;;;;;;;9.00;99.90;;;;;;5095887;28;19914;-81
2021/12/09 13:03:51;;;;;;;;;;;9.00;99.90;;;;;;5095977;28;20007;-80
2021/12/09 13:06:38;;;;;;;;;;;9.00;99.90;;;;;;5095963;28;19936;-80
2021/12/09 13:09:26;;;;;;;;;;;9.00;99.90;;;;;;5095575;28;20279;-81
2021/12/09 13:11:58;;;;;;;;;;;9.00;99.90;;;;;;5095409;28;20410;-80
2021/12/09 13:14:29;;;;;;;;;;;9.00;99.90;;;;;;5077158;28;19955;-81
2021/12/09 13:17:03;;;;;;;;;;;9.20;99.90;;;;;;5093882;28;20439;-80
2021/12/09 13:19:34;;;;;;;;;;;9.20;99.90;;;;;;5094540;28;19916;-81
2021/12/09 13:22:19;;;;;;;;;;;8.90;99.90;;;;;;5095669;28;20261;-79
2021/12/09 13:24:54;;;;;;;;;;;8.70;99.90;;;;;;5076905;28;19940;-80
2021/12/09 13:35:44;;;;;;;;;;;8.90;99.90;;;;;;5095262;28;19989;-81
2021/12/09 13:38:40;;;;;;;;;;;8.90;99.90;;;;;;5095398;28;20027;-80
2021/12/09 13:46:22;;;;;;;;;;;8.90;99.90;;;;;;5095152;28;19915;-79
2021/12/09 13:49:05;;;;;;;;;;;9.00;99.90;;;;;;5076412;28;19919;-80
2021/12/09 13:51:57;;;;;;;;;;;9.00;99.90;;;;;;5076319;28;20003;-81
2021/12/09 13:54:25;;;;;;;;;;;8.90;99.90;;;;;;5093940;28;20335;-80
2021/12/09 13:57:03;;;;;;;;;;;8.80;99.90;;;;;;5095022;28;19961;-80
2021/12/09 13:59:29;;;;;;;;;;;8.90;99.90;;;;;;5094762;28;19909;-79
2021/12/09 14:01:56;;;;;;;;;;;8.60;99.90;;;;;;5076457;28;19912;-79
2021/12/09 14:04:23;;;;;;;;;;;8.50;99.90;;;;;;5094644;28;19947;-79
2021/12/09 14:07:10;;;;;;;;;;;8.60;99.90;;;;;;5094544;28;20368;-80
2021/12/09 14:09:37;;;;;;;;;;;8.60;99.90;;;;;;5094543;28;19964;-79
2021/12/09 14:12:04;;;;;;;;;;;8.70;99.90;;;;;;5094376;28;19924;-79
2021/12/09 14:17:27;;;;;;;;;;;8.70;99.90;;;;;;5070148;28;19915;-81
2021/12/09 14:20:03;;;;;;;;;;;8.80;99.90;;;;;;5094300;28;19949;-79
2021/12/09 14:22:32;;;;;;;;;;;8.70;99.90;;;;;;5094520;28;19915;-80
2021/12/09 14:25:01;;;;;;;;;;;8.80;99.90;;;;;;5076029;28;19908;-80
2021/12/09 14:27:27;;;;;;;;;;;8.80;99.90;;;;;;5094374;28;19908;-80
2021/12/09 14:29:54;;;;;;;;;;;8.80;99.90;;;;;;5094046;28;19912;-80
2021/12/09 14:32:21;;;;;;;;;;;8.80;99.90;;;;;;5094403;28;19909;-78
2021/12/09 14:34:57;;;;;;;;;;;8.80;99.90;;;;;;5094073;28;19908;-80
2021/12/09 14:37:23;;;;;;;;;;;8.90;99.90;;;;;;5094409;28;19930;-79
2021/12/09 14:39:59;;;;;;;;;;;8.80;99.90;;;;;;5093904;28;19908;-80
2021/12/09 14:42:25;;;;;;;;;;;8.70;99.90;;;;;;5094378;28;20375;-80
2021/12/09 14:45:02;;;;;;;;;;;8.70;99.90;;;;;;5094505;28;19991;-79
2021/12/09 14:47:28;;;;;;;;;;;8.70;99.90;;;;;;5094017;28;19908;-80
2021/12/09 14:49:55;;;;;;;;;;;8.70;99.90;;;;;;5093847;28;20026;-80
2021/12/09 14:52:27;;;;;;;;;;;8.70;99.90;;;;;;5093846;28;19973;-79
2021/12/09 14:55:08;;;;;;;;;;;8.70;99.90;;;;;;5094034;28;19912;-79
2021/12/09 14:57:34;;;;;;;;;;;8.70;99.90;;;;;;5093940;28;19908;-81
2021/12/09 14:59:59;;;;;;;;;;;8.70;99.90;;;;;;5093745;28;20039;-79
2021/12/09 15:02:32;;;;;;;;;;;8.70;99.90;;;;;;5093771;28;19908;-81
2021/12/09 15:05:09;;;;;;;;;;;8.80;99.90;;;;;;5093882;28;20403;-80
2021/12/09 15:07:42;;;;;;;;;;;8.70;99.90;;;;;;5093572;28;19908;-79
2021/12/09 15:10:10;;;;;;;;;;;8.70;99.90;;;;;;5093487;28;19919;-80
2021/12/09 15:12:36;;;;;;;;;;;8.70;99.90;;;;;;5093025;28;20411;-80
2021/12/09 15:15:03;;;;;;;;;;;8.70;99.90;;;;;;5093657;28;20392;-81
2021/12/09 15:17:29;;;;;;;;;;;8.60;99.90;;;;;;5093615;28;19916;-79
2021/12/09 15:20:01;;;;;;;;;;;8.70;99.90;;;;;;5093547;28;20007;-81
2021/12/09 15:22:54;;;;;;;;;;;8.60;99.90;;;;;;5093750;28;20000;-79
2021/12/09 15:25:20;;;;;;;;;;;8.60;99.90;;;;;;5074973;28;19908;-80
2021/12/09 15:27:46;;;;;;;;;;;8.70;99.90;;;;;;5093435;28;19908;-80
2021/12/09 15:30:12;;;;;;;;;;;8.70;99.90;;;;;;5093397;28;20307;-79
2021/12/09 15:32:53;;;;;;;;;;;8.70;99.90;;;;;;5093696;28;19908;-80
2021/12/09 15:35:20;;;;;;;;;;;8.60;99.90;;;;;;5093545;28;20004;-81